Terminal Aerodrome Forecast
Issued by NWS

Home | Current Version | Previous Version | Text Only | Print | Product List | Glossary On
Versions: 1 2 3 4 5 6 7 8 9 10 11 12 13 14 15 16 17 18 19 20 21 22
000
FTUS44 KMAF 030300 AAA
TAFCNM
TAF AMD
KCNM 030312Z 0303/0324 16009KT P6SM SCT012
      TEMPO 0303/0306 BKN012
     FM030600 14006KT P6SM OVC012
      TEMPO 0308/0312 1SM BR
     FM031500 16006KT P6SM BKN100=

USA.gov is the U.S. government's official web portal to all federal, state and local government web resources and services.